createdAt,value
2023-04-18T00:01:39.282Z,8.82
2023-04-18T00:04:10.319Z,8.84
2023-04-18T00:06:39.308Z,8.85
2023-04-18T00:09:07.967Z,8.86
2023-04-18T00:11:35.768Z,8.89
2023-04-18T00:14:03.742Z,8.90
2023-04-18T00:16:32.355Z,8.90
2023-04-18T00:19:02.159Z,8.93
2023-04-18T00:21:30.193Z,8.93
2023-04-18T00:23:57.882Z,8.94
2023-04-18T00:26:26.487Z,8.95
2023-04-18T00:28:54.041Z,8.96
2023-04-18T00:31:22.214Z,8.96
2023-04-18T00:33:50.546Z,8.96
2023-04-18T00:36:21.984Z,8.96
2023-04-18T00:38:49.655Z,8.98
2023-04-18T00:41:17.718Z,9.00
2023-04-18T00:43:47.866Z,9.03
2023-04-18T00:46:15.725Z,9.06
2023-04-18T00:48:44.367Z,9.07
2023-04-18T00:51:12.581Z,9.09
2023-04-18T00:53:42.072Z,9.11
2023-04-18T00:56:12.894Z,9.13
2023-04-18T00:58:41.024Z,9.15
2023-04-18T01:01:09.865Z,9.16
2023-04-18T01:03:39.717Z,9.17
2023-04-18T01:06:08.104Z,9.19
2023-04-18T01:08:36.544Z,9.20
2023-04-18T01:11:05.569Z,9.21
2023-04-18T01:13:33.411Z,9.22
2023-04-18T01:16:02.212Z,9.22
2023-04-18T01:18:31.930Z,9.24
2023-04-18T01:21:00.444Z,9.24
2023-04-18T01:23:28.636Z,9.26
2023-04-18T01:25:56.560Z,9.27
2023-04-18T01:28:24.606Z,9.27
2023-04-18T01:30:52.255Z,9.27
2023-04-18T01:33:19.946Z,9.27
2023-04-18T01:35:47.910Z,9.27
2023-04-18T01:38:15.562Z,9.26
2023-04-18T01:40:43.463Z,9.25
2023-04-18T01:43:10.985Z,9.25
2023-04-18T01:45:39.076Z,9.25
2023-04-18T01:48:06.761Z,9.25
2023-04-18T01:50:34.492Z,9.26
2023-04-18T01:53:02.464Z,9.27
2023-04-18T01:55:30.524Z,9.27
2023-04-18T01:57:59.638Z,9.27
2023-04-18T02:00:27.296Z,9.26
2023-04-18T02:02:54.974Z,9.25
2023-04-18T02:05:22.745Z,9.26
2023-04-18T02:07:51.040Z,9.24
2023-04-18T02:10:19.383Z,9.25
2023-04-18T02:12:47.691Z,9.26
2023-04-18T02:15:15.536Z,9.27
2023-04-18T02:17:42.985Z,9.28
2023-04-18T02:20:10.850Z,9.28
2023-04-18T02:22:39.678Z,9.26
2023-04-18T02:25:07.913Z,9.25
2023-04-18T02:27:35.557Z,9.26
2023-04-18T02:30:04.959Z,9.26
2023-04-18T02:32:34.113Z,9.26
2023-04-18T02:35:02.041Z,9.26
2023-04-18T02:37:29.757Z,9.26
2023-04-18T02:39:57.794Z,9.26
2023-04-18T02:42:26.312Z,9.27
2023-04-18T02:44:53.947Z,9.27
2023-04-18T02:47:21.826Z,9.26
2023-04-18T02:49:49.470Z,9.26
2023-04-18T02:52:16.947Z,9.24
2023-04-18T02:54:44.688Z,9.24
2023-04-18T02:57:12.361Z,9.23
2023-04-18T02:59:40.546Z,9.21
2023-04-18T03:02:08.416Z,9.20
2023-04-18T03:04:36.106Z,9.19
2023-04-18T03:07:03.747Z,9.17
2023-04-18T03:09:31.375Z,9.17
2023-04-18T03:11:58.903Z,9.16
2023-04-18T03:14:26.370Z,9.14
2023-04-18T03:16:55.600Z,9.12
2023-04-18T03:19:23.435Z,9.10
2023-04-18T03:21:51.071Z,9.09
2023-04-18T03:24:19.093Z,9.10
2023-04-18T03:26:47.176Z,9.10
2023-04-18T03:29:14.664Z,9.09
2023-04-18T03:31:42.380Z,9.10
2023-04-18T03:34:10.035Z,9.11
2023-04-18T03:36:37.692Z,9.13
2023-04-18T03:39:05.240Z,9.14
2023-04-18T03:41:32.857Z,9.15
2023-04-18T03:44:00.447Z,9.14
2023-04-18T03:46:28.615Z,9.13
2023-04-18T03:48:56.338Z,9.15
2023-04-18T03:51:24.170Z,9.16
2023-04-18T03:53:51.741Z,9.17
2023-04-18T03:56:19.459Z,9.18
2023-04-18T03:58:47.373Z,9.19
2023-04-18T04:01:15.212Z,9.21
2023-04-18T04:03:43.123Z,9.23
2023-04-18T04:06:12.208Z,9.24
2023-04-18T04:08:39.855Z,9.24
2023-04-18T04:11:07.370Z,9.25
2023-04-18T04:13:36.845Z,9.26
2023-04-18T04:16:05.362Z,9.29
2023-04-18T04:18:32.985Z,9.30
2023-04-18T04:21:01.218Z,9.31
2023-04-18T04:23:28.932Z,9.32
2023-04-18T04:25:56.660Z,9.35
2023-04-18T04:28:25.982Z,9.37
2023-04-18T04:30:53.707Z,9.37
2023-04-18T04:33:27.910Z,9.38
2023-04-18T04:35:56.535Z,9.39
2023-04-18T04:38:25.097Z,9.41
2023-04-18T04:40:53.122Z,9.43
2023-04-18T04:43:21.790Z,9.45
2023-04-18T04:45:54.130Z,9.49
2023-04-18T04:48:22.120Z,9.53
2023-04-18T04:50:58.265Z,9.56
2023-04-18T04:53:28.137Z,9.60
2023-04-18T04:55:56.005Z,9.63
2023-04-18T04:58:23.960Z,9.67
2023-04-18T05:00:52.693Z,9.70
2023-04-18T05:03:20.977Z,9.74
2023-04-18T05:05:48.664Z,9.77
2023-04-18T05:08:16.841Z,9.80
2023-04-18T05:10:45.966Z,9.84
2023-04-18T05:13:13.478Z,9.88
2023-04-18T05:15:41.068Z,9.92
2023-04-18T05:18:08.701Z,9.94
2023-04-18T05:20:36.275Z,9.96
2023-04-18T05:23:06.764Z,9.98
2023-04-18T05:25:34.551Z,10.02
2023-04-18T05:28:04.835Z,10.05
2023-04-18T05:30:32.362Z,10.08
2023-04-18T05:33:00.272Z,10.11
2023-04-18T05:35:27.744Z,10.14
2023-04-18T05:37:59.559Z,10.17
2023-04-18T05:40:27.485Z,10.19
2023-04-18T05:42:55.282Z,10.24
2023-04-18T05:45:23.045Z,10.32
2023-04-18T05:47:51.497Z,10.38
2023-04-18T05:50:37.089Z,10.42
2023-04-18T05:53:04.876Z,10.48
2023-04-18T05:55:34.489Z,10.55
2023-04-18T05:58:02.074Z,10.63
2023-04-18T06:00:29.546Z,10.69
2023-04-18T06:02:57.462Z,10.74
2023-04-18T06:05:28.798Z,10.78
2023-04-18T06:07:56.754Z,10.82
2023-04-18T06:10:27.032Z,10.88
2023-04-18T06:12:54.568Z,10.95
2023-04-18T06:15:22.387Z,11.01
2023-04-18T06:17:50.809Z,11.07
2023-04-18T06:20:18.849Z,11.14
2023-04-18T06:22:46.517Z,11.19
2023-04-18T06:25:18.764Z,11.26
2023-04-18T06:27:48.863Z,11.34
2023-04-18T06:30:17.257Z,11.42
2023-04-18T06:32:44.857Z,11.51
2023-04-18T06:35:13.793Z,11.58
2023-04-18T06:37:50.116Z,11.65
2023-04-18T06:40:19.224Z,11.73
2023-04-18T06:42:48.675Z,11.82
2023-04-18T06:45:22.658Z,11.92
2023-04-18T06:47:54.114Z,12.03
2023-04-18T06:50:26.678Z,12.11
2023-04-18T06:52:54.306Z,12.19
2023-04-18T06:55:22.383Z,12.30
2023-04-18T06:57:51.271Z,12.40
2023-04-18T07:00:25.744Z,12.50
2023-04-18T07:02:53.574Z,12.60
2023-04-18T07:05:21.464Z,12.70
2023-04-18T07:07:49.160Z,12.79
2023-04-18T07:10:16.750Z,12.85
2023-04-18T07:12:44.198Z,12.94
2023-04-18T07:15:11.966Z,13.04
2023-04-18T07:17:39.566Z,13.11
2023-04-18T07:20:07.880Z,13.19
2023-04-18T07:22:35.550Z,13.28
2023-04-18T07:25:03.488Z,13.37
2023-04-18T07:27:31.157Z,13.42
2023-04-18T07:30:00.698Z,13.50
2023-04-18T07:32:28.213Z,13.59
2023-04-18T07:34:57.379Z,13.66
2023-04-18T07:37:25.156Z,13.78
2023-04-18T07:39:53.124Z,13.90
2023-04-18T07:42:20.812Z,14.02
2023-04-18T07:44:49.703Z,14.17
2023-04-18T07:47:22.373Z,14.31
2023-04-18T07:49:50.689Z,14.33
2023-04-18T07:52:18.392Z,14.36
2023-04-18T07:54:46.050Z,14.48
2023-04-18T07:57:13.661Z,14.51
2023-04-18T07:59:41.531Z,14.55
2023-04-18T08:02:09.377Z,14.70
2023-04-18T08:04:37.319Z,14.84
2023-04-18T08:07:05.148Z,14.94
2023-04-18T08:09:32.784Z,15.08
2023-04-18T08:12:00.601Z,15.20
2023-04-18T08:14:28.448Z,15.28
2023-04-18T08:16:56.246Z,15.35
2023-04-18T08:19:24.242Z,15.44
2023-04-18T08:21:52.291Z,15.55
2023-04-18T08:24:20.421Z,15.68
2023-04-18T08:26:48.260Z,15.78
2023-04-18T08:29:15.891Z,15.86
2023-04-18T08:31:43.816Z,15.93
2023-04-18T08:34:11.686Z,15.99
2023-04-18T08:36:39.677Z,16.07
2023-04-18T08:39:08.073Z,16.18
2023-04-18T08:41:40.094Z,16.28
2023-04-18T08:44:11.870Z,16.51
2023-04-18T08:46:40.683Z,16.89
2023-04-18T08:49:15.503Z,17.56
2023-04-18T08:51:48.352Z,18.17
2023-04-18T08:54:24.646Z,18.65
2023-04-18T08:57:13.652Z,19.09
2023-04-18T08:59:50.993Z,19.44
2023-04-18T09:02:45.245Z,19.55
2023-04-18T09:05:21.792Z,19.36
2023-04-18T09:07:54.676Z,19.16
2023-04-18T09:10:27.858Z,18.99
2023-04-18T09:12:58.150Z,18.85
2023-04-18T09:15:39.395Z,18.79
2023-04-18T09:18:11.480Z,18.80
2023-04-18T09:20:42.176Z,18.79
2023-04-18T09:23:23.545Z,18.82
2023-04-18T09:25:53.275Z,18.84
2023-04-18T09:28:37.556Z,18.83
2023-04-18T09:31:12.835Z,18.83
2023-04-18T09:33:53.953Z,18.83
2023-04-18T09:36:23.822Z,18.80
2023-04-18T09:38:56.026Z,18.77
2023-04-18T09:41:25.237Z,18.80
2023-04-18T09:44:15.535Z,18.87
2023-04-18T09:47:01.132Z,18.95
2023-04-18T09:49:35.162Z,18.96
2023-04-18T09:52:13.735Z,18.98
2023-04-18T09:54:48.758Z,19.07
2023-04-18T09:57:18.138Z,19.17
2023-04-18T09:59:57.673Z,19.26
2023-04-18T10:02:35.195Z,19.31
2023-04-18T10:05:08.171Z,19.39
2023-04-18T10:07:36.756Z,19.52
2023-04-18T10:10:05.230Z,19.59
2023-04-18T10:12:34.251Z,19.67
2023-04-18T10:15:02.468Z,19.72
2023-04-18T10:17:52.547Z,19.80
2023-04-18T10:20:32.614Z,19.86
2023-04-18T10:23:21.154Z,19.97
2023-04-18T10:25:51.275Z,20.13
2023-04-18T10:28:21.697Z,20.27
2023-04-18T10:30:52.546Z,20.37
2023-04-18T10:33:42.811Z,20.45
2023-04-18T10:36:21.479Z,20.55
2023-04-18T10:39:03.822Z,20.61
2023-04-18T10:41:34.108Z,20.63
2023-04-18T10:44:08.722Z,20.61
2023-04-18T10:46:42.225Z,20.63
2023-04-18T10:49:22.283Z,20.68
2023-04-18T10:51:57.439Z,20.69
2023-04-18T10:54:59.366Z,20.73
2023-04-18T10:57:49.336Z,20.72
2023-04-18T11:00:21.606Z,20.66
2023-04-18T11:02:58.665Z,20.47
2023-04-18T11:05:31.937Z,20.33
2023-04-18T11:08:04.599Z,20.27
2023-04-18T11:10:32.447Z,20.24
2023-04-18T11:13:04.726Z,20.33
2023-04-18T11:15:32.850Z,20.51
2023-04-18T11:18:04.993Z,20.76
2023-04-18T11:20:50.750Z,21.09
2023-04-18T11:23:25.909Z,21.46
2023-04-18T11:26:00.582Z,21.68
2023-04-18T11:28:29.619Z,21.84
2023-04-18T11:31:31.317Z,21.92
2023-04-18T11:34:54.105Z,22.06
2023-04-18T11:41:20.029Z,22.10
2023-04-18T11:43:47.906Z,22.06
2023-04-18T11:46:15.879Z,21.96
2023-04-18T11:48:45.609Z,21.88
2023-04-18T11:51:34.355Z,21.83
2023-04-18T11:54:04.358Z,21.71
2023-04-18T11:56:34.606Z,21.58
2023-04-18T11:59:10.022Z,21.48
2023-04-18T12:01:46.770Z,21.40
2023-04-18T12:04:18.244Z,21.30
2023-04-18T12:06:52.597Z,21.18
2023-04-18T12:09:26.926Z,21.06
2023-04-18T12:12:03.319Z,21.03
2023-04-18T12:14:31.141Z,21.02
2023-04-18T12:17:02.862Z,21.01
2023-04-18T12:19:30.549Z,21.17
2023-04-18T12:22:00.983Z,21.49
2023-04-18T12:24:33.162Z,21.71
2023-04-18T12:27:01.273Z,21.68
2023-04-18T12:29:29.860Z,21.60
2023-04-18T12:31:57.934Z,21.49
2023-04-18T12:34:25.875Z,21.38
2023-04-18T12:36:53.854Z,21.28
2023-04-18T12:39:21.442Z,21.23
2023-04-18T12:41:49.751Z,21.19
2023-04-18T12:44:18.387Z,21.25
2023-04-18T12:46:46.289Z,21.34
2023-04-18T12:49:15.549Z,21.39
2023-04-18T12:51:53.553Z,21.50
2023-04-18T12:54:32.859Z,21.63
2023-04-18T12:57:05.650Z,21.88
2023-04-18T12:59:38.820Z,22.35
2023-04-18T13:02:10.087Z,22.96
2023-04-18T13:04:38.367Z,23.76
2023-04-18T13:07:06.464Z,24.11
2023-04-18T13:09:34.798Z,24.17
2023-04-18T13:12:06.430Z,24.00
2023-04-18T13:14:34.089Z,23.61
2023-04-18T13:17:01.674Z,23.08
2023-04-18T13:19:29.582Z,22.57
2023-04-18T13:21:58.161Z,22.07
2023-04-18T13:24:25.698Z,21.68
2023-04-18T13:26:53.235Z,21.38
2023-04-18T13:29:20.926Z,21.10
2023-04-18T13:31:48.562Z,20.86
2023-04-18T13:34:16.164Z,20.68
2023-04-18T13:36:43.820Z,20.52
2023-04-18T13:39:14.774Z,20.39
2023-04-18T13:41:42.467Z,20.33
2023-04-18T13:44:10.008Z,20.34
2023-04-18T13:46:38.095Z,20.47
2023-04-18T13:49:05.930Z,20.59
2023-04-18T13:51:34.222Z,20.67
2023-04-18T13:54:01.924Z,20.72
2023-04-18T13:56:29.690Z,21.34
2023-04-18T13:58:57.297Z,22.67
2023-04-18T14:01:25.288Z,23.96
2023-04-18T14:03:53.153Z,24.84
2023-04-18T14:06:20.971Z,24.89
2023-04-18T14:08:51.606Z,24.51
2023-04-18T14:11:20.478Z,24.01
2023-04-18T14:13:48.028Z,23.31
2023-04-18T14:16:19.173Z,22.62
2023-04-18T14:18:47.252Z,22.01
2023-04-18T14:21:15.964Z,21.43
2023-04-18T14:23:43.807Z,20.90
2023-04-18T14:26:12.103Z,20.43
2023-04-18T14:28:39.617Z,20.04
2023-04-18T14:31:08.471Z,19.70
2023-04-18T14:33:36.168Z,19.39
2023-04-18T14:36:05.396Z,19.13
2023-04-18T14:38:32.947Z,18.96
2023-04-18T14:41:01.064Z,18.86
2023-04-18T14:43:28.655Z,18.87
2023-04-18T14:45:58.443Z,19.23
2023-04-18T14:48:28.508Z,20.17
2023-04-18T14:51:00.251Z,21.69
2023-04-18T14:53:28.186Z,23.34
2023-04-18T14:55:56.400Z,24.34
2023-04-18T14:58:24.307Z,24.65
2023-04-18T15:00:51.916Z,24.52
2023-04-18T15:03:19.745Z,24.17
2023-04-18T15:05:48.966Z,23.88
2023-04-18T15:08:16.690Z,23.60
2023-04-18T15:10:44.715Z,23.89
2023-04-18T15:13:12.224Z,24.72
2023-04-18T15:15:40.063Z,25.07
2023-04-18T15:18:08.649Z,25.04
2023-04-18T15:20:37.314Z,24.57
2023-04-18T15:23:05.830Z,23.95
2023-04-18T15:25:35.292Z,23.33
2023-04-18T15:28:03.705Z,22.86
2023-04-18T15:30:33.450Z,23.40
2023-04-18T15:33:02.455Z,24.20
2023-04-18T15:35:30.151Z,24.30
2023-04-18T15:37:57.940Z,23.82
2023-04-18T15:40:26.292Z,23.29
2023-04-18T15:42:54.386Z,22.82
2023-04-18T15:45:22.134Z,22.74
2023-04-18T15:47:49.929Z,23.33
2023-04-18T15:50:17.849Z,23.81
2023-04-18T15:52:45.439Z,23.70
2023-04-18T15:55:13.777Z,23.47
2023-04-18T15:57:41.981Z,23.23
2023-04-18T16:00:20.666Z,23.08
2023-04-18T16:02:49.614Z,22.90
2023-04-18T16:05:17.339Z,22.52
2023-04-18T16:07:44.931Z,22.15
2023-04-18T16:10:12.696Z,21.56
2023-04-18T16:12:40.747Z,20.81
2023-04-18T16:15:11.320Z,20.19
2023-04-18T16:17:39.016Z,19.71
2023-04-18T16:20:08.453Z,19.33
2023-04-18T16:22:45.717Z,18.96
2023-04-18T16:25:14.737Z,18.65
2023-04-18T16:27:42.684Z,18.92
2023-04-18T16:30:10.678Z,19.59
2023-04-18T16:32:38.858Z,19.95
2023-04-18T16:35:10.152Z,19.65
2023-04-18T16:37:39.217Z,19.24
2023-04-18T16:40:12.188Z,18.93
2023-04-18T16:42:41.102Z,18.52
2023-04-18T16:45:09.145Z,18.11
2023-04-18T16:47:36.831Z,17.76
2023-04-18T16:50:04.860Z,17.40
2023-04-18T16:52:32.482Z,17.05
2023-04-18T16:55:00.295Z,16.69
2023-04-18T16:57:28.169Z,16.36
2023-04-18T16:59:55.773Z,16.08
2023-04-18T17:02:23.682Z,15.84
2023-04-18T17:04:51.697Z,15.60
2023-04-18T17:07:19.856Z,15.37
2023-04-18T17:09:47.486Z,15.15
2023-04-18T17:12:15.119Z,14.97
2023-04-18T17:14:42.654Z,14.79
2023-04-18T17:17:10.640Z,14.65
2023-04-18T17:19:39.152Z,14.52
2023-04-18T17:22:07.328Z,14.38
2023-04-18T17:24:34.805Z,14.25
2023-04-18T17:27:02.394Z,14.12
2023-04-18T17:29:30.912Z,14.01
2023-04-18T17:31:58.620Z,13.89
2023-04-18T17:34:26.834Z,13.76
2023-04-18T17:36:54.424Z,13.68
2023-04-18T17:39:22.636Z,13.59
2023-04-18T17:41:50.830Z,13.50
2023-04-18T17:44:18.519Z,13.40
2023-04-18T17:46:46.794Z,13.33
2023-04-18T17:49:16.252Z,13.27
2023-04-18T17:51:44.096Z,13.22
2023-04-18T17:54:13.479Z,13.16
2023-04-18T17:56:41.199Z,13.11
2023-04-18T17:59:10.080Z,13.07
2023-04-18T18:01:37.916Z,13.04
2023-04-18T18:04:05.680Z,13.01
2023-04-18T18:06:33.478Z,12.97
2023-04-18T18:09:01.184Z,12.93
2023-04-18T18:11:28.752Z,12.89
2023-04-18T18:13:57.580Z,12.87
2023-04-18T18:16:25.149Z,12.82
2023-04-18T18:18:53.258Z,12.76
2023-04-18T18:21:20.964Z,12.68
2023-04-18T18:23:48.483Z,12.65
2023-04-18T18:26:18.441Z,12.60
2023-04-18T18:28:46.174Z,12.57
2023-04-18T18:31:14.360Z,12.54
2023-04-18T18:33:42.153Z,12.51
2023-04-18T18:36:09.792Z,12.49
2023-04-18T18:38:37.589Z,12.47
2023-04-18T18:41:06.195Z,12.43
2023-04-18T18:43:34.009Z,12.39
2023-04-18T18:46:04.244Z,12.36
2023-04-18T18:48:32.778Z,12.33
2023-04-18T18:51:00.658Z,12.30
2023-04-18T18:53:28.377Z,12.27
2023-04-18T18:55:58.115Z,12.24
2023-04-18T18:58:26.160Z,12.20
2023-04-18T19:00:56.050Z,12.16
2023-04-18T19:03:23.919Z,12.11
2023-04-18T19:05:51.853Z,12.06
2023-04-18T19:08:19.519Z,12.01
2023-04-18T19:10:47.122Z,11.98
2023-04-18T19:13:14.621Z,11.93
2023-04-18T19:15:42.473Z,11.87
2023-04-18T19:18:10.116Z,11.81
2023-04-18T19:20:40.757Z,11.75
2023-04-18T19:23:08.257Z,11.69
2023-04-18T19:25:35.900Z,11.63
2023-04-18T19:28:07.387Z,11.57
2023-04-18T19:30:34.956Z,11.52
2023-04-18T19:33:02.558Z,11.46
2023-04-18T19:35:30.489Z,11.40
2023-04-18T19:38:01.823Z,11.35
2023-04-18T19:40:29.944Z,11.31
2023-04-18T19:42:58.077Z,11.26
2023-04-18T19:45:26.003Z,11.23
2023-04-18T19:47:53.758Z,11.20
2023-04-18T19:50:21.214Z,11.16
2023-04-18T19:52:49.836Z,11.13
2023-04-18T19:55:17.621Z,11.09
2023-04-18T19:57:45.276Z,11.07
2023-04-18T20:00:14.071Z,11.03
2023-04-18T20:02:42.276Z,10.98
2023-04-18T20:05:13.609Z,10.92
2023-04-18T20:07:42.511Z,10.88
2023-04-18T20:10:11.369Z,10.82
2023-04-18T20:12:38.882Z,10.77
2023-04-18T20:15:07.032Z,10.74
2023-04-18T20:17:34.903Z,10.70
2023-04-18T20:20:04.573Z,10.67
2023-04-18T20:22:32.527Z,10.60
2023-04-18T20:25:01.558Z,10.56
2023-04-18T20:27:29.124Z,10.52
2023-04-18T20:29:57.462Z,10.48
2023-04-18T20:32:26.517Z,10.45
2023-04-18T20:34:54.784Z,10.41
2023-04-18T20:37:22.408Z,10.36
2023-04-18T20:39:50.084Z,10.30
2023-04-18T20:42:18.575Z,10.24
2023-04-18T20:44:47.596Z,10.20
2023-04-18T20:47:15.886Z,10.15
2023-04-18T20:49:43.954Z,10.10
2023-04-18T20:52:12.870Z,10.08
2023-04-18T20:54:41.570Z,10.05
2023-04-18T20:57:09.162Z,10.00
2023-04-18T20:59:36.784Z,9.92
2023-04-18T21:02:04.453Z,9.83
2023-04-18T21:04:32.194Z,9.72
2023-04-18T21:07:00.014Z,9.62
2023-04-18T21:09:27.699Z,9.52
2023-04-18T21:11:55.330Z,9.42
2023-04-18T21:14:22.930Z,9.34
2023-04-18T21:16:50.522Z,9.25
2023-04-18T21:19:18.124Z,9.16
2023-04-18T21:21:45.613Z,9.08
2023-04-18T21:24:13.501Z,9.00
2023-04-18T21:26:41.375Z,8.90
2023-04-18T21:29:09.417Z,8.82
2023-04-18T21:31:40.695Z,8.73
2023-04-18T21:34:09.152Z,8.66
2023-04-18T21:36:36.889Z,8.59
2023-04-18T21:39:04.308Z,8.51
2023-04-18T21:41:32.066Z,8.45
2023-04-18T21:43:59.577Z,8.40
2023-04-18T21:46:27.176Z,8.37
2023-04-18T21:48:54.819Z,8.34
2023-04-18T21:51:22.371Z,8.29
2023-04-18T21:53:50.061Z,8.25
2023-04-18T21:56:17.523Z,8.22
2023-04-18T21:58:45.477Z,8.16
2023-04-18T22:01:13.162Z,8.11
2023-04-18T22:03:44.276Z,8.08
2023-04-18T22:06:12.168Z,8.03
2023-04-18T22:08:39.734Z,7.98
2023-04-18T22:11:11.477Z,7.94
2023-04-18T22:13:39.010Z,7.91
2023-04-18T22:16:08.238Z,7.88
2023-04-18T22:18:37.986Z,7.85
2023-04-18T22:21:05.970Z,7.83
2023-04-18T22:23:33.432Z,7.81
2023-04-18T22:26:01.293Z,7.80
2023-04-18T22:28:28.879Z,7.79
2023-04-18T22:30:56.873Z,7.78
2023-04-18T22:33:24.614Z,7.75
2023-04-18T22:35:52.462Z,7.72
2023-04-18T22:38:20.058Z,7.68
2023-04-18T22:40:47.620Z,7.64
2023-04-18T22:43:15.770Z,7.61
2023-04-18T22:45:45.262Z,7.56
2023-04-18T22:48:13.575Z,7.49
2023-04-18T22:50:42.628Z,7.42
2023-04-18T22:53:12.617Z,7.39
2023-04-18T22:55:41.494Z,7.36
2023-04-18T22:58:11.165Z,7.31
2023-04-18T23:00:39.290Z,7.24
2023-04-18T23:03:07.002Z,7.16
2023-04-18T23:05:35.286Z,7.11
2023-04-18T23:08:03.100Z,7.06
2023-04-18T23:10:30.733Z,6.99
2023-04-18T23:12:58.270Z,6.92
2023-04-18T23:15:26.987Z,6.85
2023-04-18T23:17:54.647Z,6.81
2023-04-18T23:20:25.205Z,6.76
2023-04-18T23:22:53.683Z,6.73
2023-04-18T23:25:21.299Z,6.71
2023-04-18T23:27:49.025Z,6.69
2023-04-18T23:30:17.210Z,6.67
2023-04-18T23:32:44.902Z,6.66
2023-04-18T23:35:12.529Z,6.65
2023-04-18T23:37:40.281Z,6.65
2023-04-18T23:40:09.253Z,6.64
2023-04-18T23:42:36.858Z,6.63
2023-04-18T23:45:05.972Z,6.60
2023-04-18T23:47:33.536Z,6.55
2023-04-18T23:50:01.287Z,6.49
2023-04-18T23:52:29.006Z,6.43
2023-04-18T23:55:00.639Z,6.38
2023-04-18T23:57:28.572Z,6.34
2023-04-18T23:59:56.198Z,6.30
